createdAt,value
2023-03-06T00:01:10.055Z,5.50
2023-03-06T00:03:39.672Z,6.65
2023-03-06T00:06:08.620Z,6.78
2023-03-06T00:08:36.940Z,5.53
2023-03-06T00:11:05.608Z,5.85
2023-03-06T00:13:35.019Z,4.68
2023-03-06T00:16:03.376Z,6.18
2023-03-06T00:18:31.938Z,5.85
2023-03-06T00:21:01.524Z,6.38
2023-03-06T00:23:29.946Z,6.20
2023-03-06T00:25:58.780Z,6.13
2023-03-06T00:28:30.956Z,6.40
2023-03-06T00:30:59.777Z,5.57
2023-03-06T00:33:28.252Z,5.43
2023-03-06T00:35:57.579Z,4.38
2023-03-06T00:38:28.546Z,6.03
2023-03-06T00:40:58.136Z,5.75
2023-03-06T00:43:26.615Z,6.47
2023-03-06T00:45:54.865Z,5.35
2023-03-06T00:48:23.606Z,5.45
2023-03-06T00:50:53.540Z,4.22
2023-03-06T00:53:22.061Z,5.50
2023-03-06T00:55:53.061Z,5.63
2023-03-06T00:58:21.371Z,4.07
2023-03-06T01:00:50.623Z,5.22
2023-03-06T01:03:19.311Z,5.63
2023-03-06T01:05:47.580Z,5.13
2023-03-06T01:08:16.151Z,4.72
2023-03-06T01:10:44.718Z,4.75
2023-03-06T01:13:14.355Z,4.78
2023-03-06T01:15:43.086Z,4.90
2023-03-06T01:18:11.620Z,4.78
2023-03-06T01:20:40.162Z,4.45
2023-03-06T01:23:09.597Z,5.93
2023-03-06T01:25:37.842Z,4.85
2023-03-06T01:28:06.406Z,4.75
2023-03-06T01:30:35.978Z,4.88
2023-03-06T01:33:04.830Z,4.53
2023-03-06T01:35:33.426Z,4.65
2023-03-06T01:38:01.963Z,4.75
2023-03-06T01:40:32.860Z,5.85
2023-03-06T01:43:09.542Z,4.70
2023-03-06T01:46:22.830Z,4.57
2023-03-06T01:48:56.603Z,4.60
2023-03-06T01:51:30.571Z,4.60
2023-03-06T01:54:02.099Z,4.72
2023-03-06T01:56:30.856Z,4.70
2023-03-06T01:59:00.794Z,4.80
2023-03-06T02:01:31.049Z,4.60
2023-03-06T02:04:00.535Z,6.15
2023-03-06T02:06:30.502Z,5.10
2023-03-06T02:08:59.066Z,4.03
2023-03-06T02:11:27.804Z,4.78
2023-03-06T02:13:56.582Z,3.83
2023-03-06T02:16:28.873Z,4.25
2023-03-06T02:19:01.365Z,4.00
2023-03-06T02:21:35.400Z,5.35
2023-03-06T02:24:19.784Z,4.85
2023-03-06T02:26:50.414Z,5.80
2023-03-06T02:29:25.425Z,4.32
2023-03-06T02:31:54.033Z,4.50
2023-03-06T02:34:56.163Z,5.20
2023-03-06T02:37:26.224Z,4.10
2023-03-06T02:40:08.084Z,4.55
2023-03-06T02:42:37.798Z,4.55
2023-03-06T02:45:13.188Z,3.78
2023-03-06T02:47:42.603Z,5.57
2023-03-06T02:50:12.597Z,3.90
2023-03-06T02:52:41.219Z,4.53
2023-03-06T02:55:10.447Z,5.55
2023-03-06T02:57:40.073Z,4.40
2023-03-06T03:00:11.159Z,5.05
2023-03-06T03:02:39.736Z,4.03
2023-03-06T03:05:09.172Z,4.30
2023-03-06T03:10:12.595Z,2.72
2023-03-06T03:12:42.976Z,4.57
2023-03-06T03:15:12.450Z,4.55
2023-03-06T03:17:42.004Z,4.25
2023-03-06T03:20:15.246Z,5.50
2023-03-06T03:22:44.094Z,3.55
2023-03-06T03:25:13.208Z,3.80
2023-03-06T03:27:42.835Z,4.88
2023-03-06T03:30:13.164Z,3.92
2023-03-06T03:32:41.769Z,3.45
2023-03-06T03:35:12.829Z,4.18
2023-03-06T03:37:42.399Z,4.78
2023-03-06T03:40:12.670Z,4.68
2023-03-06T03:42:42.587Z,4.25
2023-03-06T03:45:12.942Z,3.63
2023-03-06T03:47:41.772Z,5.30
2023-03-06T03:50:12.070Z,5.18
2023-03-06T03:52:40.944Z,5.50
2023-03-06T03:55:10.462Z,6.15
2023-03-06T03:57:43.146Z,5.10
2023-03-06T04:00:16.400Z,5.07
2023-03-06T04:03:04.881Z,5.68
2023-03-06T04:05:39.990Z,5.10
2023-03-06T04:08:10.512Z,5.32
2023-03-06T04:10:42.787Z,5.53
2023-03-06T04:13:14.441Z,5.43
2023-03-06T04:15:45.509Z,5.65
2023-03-06T04:18:16.215Z,5.63
2023-03-06T04:20:46.530Z,6.10
2023-03-06T04:23:16.204Z,5.45
2023-03-06T04:25:44.865Z,5.53
2023-03-06T04:28:15.663Z,5.60
2023-03-06T04:30:44.526Z,4.95
2023-03-06T04:33:13.526Z,5.47
2023-03-06T04:35:43.756Z,6.00
2023-03-06T04:38:18.597Z,5.65
2023-03-06T04:40:49.564Z,4.82
2023-03-06T04:43:19.219Z,5.97
2023-03-06T04:45:47.860Z,5.80
2023-03-06T04:48:18.041Z,6.03
2023-03-06T04:50:46.904Z,4.95
2023-03-06T04:53:16.842Z,5.05
2023-03-06T04:55:45.114Z,6.15
2023-03-06T04:58:14.927Z,4.82
2023-03-06T05:00:44.689Z,5.18
2023-03-06T05:03:14.789Z,5.53
2023-03-06T05:05:43.537Z,5.72
2023-03-06T05:08:15.140Z,5.82
2023-03-06T05:10:44.150Z,7.20
2023-03-06T05:13:13.068Z,7.10
2023-03-06T05:15:41.986Z,6.10
2023-03-06T05:18:11.565Z,6.25
2023-03-06T05:20:40.125Z,5.88
2023-03-06T05:23:08.655Z,6.13
2023-03-06T05:25:38.941Z,6.40
2023-03-06T05:28:07.808Z,6.13
2023-03-06T05:30:36.733Z,6.25
2023-03-06T05:33:05.559Z,6.78
2023-03-06T05:35:35.465Z,6.22
2023-03-06T05:38:04.099Z,6.35
2023-03-06T05:40:32.686Z,5.68
2023-03-06T05:43:01.253Z,6.05
2023-03-06T05:45:29.943Z,6.28
2023-03-06T05:47:58.485Z,5.78
2023-03-06T05:50:26.984Z,6.32
2023-03-06T05:52:56.568Z,5.95
2023-03-06T05:55:25.134Z,7.40
2023-03-06T05:57:54.589Z,6.22
2023-03-06T06:00:24.650Z,5.75
2023-03-06T06:02:53.175Z,7.00
2023-03-06T06:05:21.722Z,6.20
2023-03-06T06:07:50.001Z,6.75
2023-03-06T06:10:19.927Z,6.10
2023-03-06T06:12:48.149Z,5.70
2023-03-06T06:15:16.733Z,7.03
2023-03-06T06:17:45.222Z,7.25
2023-03-06T06:20:14.792Z,7.70
2023-03-06T06:22:43.301Z,7.20
2023-03-06T06:25:11.557Z,7.35
2023-03-06T06:27:41.166Z,6.85
2023-03-06T06:30:12.617Z,7.15
2023-03-06T06:32:41.324Z,7.07
2023-03-06T06:35:10.356Z,6.55
2023-03-06T06:37:38.948Z,6.78
2023-03-06T06:40:08.763Z,6.97
2023-03-06T06:42:40.165Z,6.57
2023-03-06T06:45:12.681Z,7.03
2023-03-06T06:47:42.074Z,7.40
2023-03-06T06:50:14.032Z,5.82
2023-03-06T06:52:42.614Z,6.65
2023-03-06T06:55:12.051Z,7.03
2023-03-06T06:57:42.001Z,6.30
2023-03-06T07:00:15.778Z,7.90
2023-03-06T07:02:44.593Z,6.57
2023-03-06T07:05:13.318Z,7.13
2023-03-06T07:07:41.618Z,7.65
2023-03-06T07:10:15.304Z,6.80
2023-03-06T07:12:43.990Z,7.10
2023-03-06T07:15:16.598Z,8.05
2023-03-06T07:17:45.253Z,8.63
2023-03-06T07:20:13.819Z,7.30
2023-03-06T07:22:50.997Z,7.25
2023-03-06T07:25:22.614Z,7.65
2023-03-06T07:27:54.447Z,7.80
2023-03-06T07:30:25.568Z,7.32
2023-03-06T07:32:55.307Z,7.55
2023-03-06T07:35:24.454Z,7.55
2023-03-06T07:37:53.049Z,7.72
2023-03-06T07:40:26.150Z,8.05
2023-03-06T07:43:06.087Z,6.57
2023-03-06T07:45:46.998Z,7.72
2023-03-06T07:48:15.928Z,6.65
2023-03-06T07:50:44.696Z,7.60
2023-03-06T07:53:13.389Z,6.60
2023-03-06T07:55:42.401Z,7.53
2023-03-06T07:58:11.007Z,7.63
2023-03-06T08:00:39.547Z,9.02
2023-03-06T08:03:11.190Z,7.60
2023-03-06T08:05:39.851Z,6.80
2023-03-06T08:08:09.141Z,7.15
2023-03-06T08:10:38.012Z,8.18
2023-03-06T08:13:06.600Z,7.30
2023-03-06T08:15:35.150Z,7.60
2023-03-06T08:18:03.712Z,8.77
2023-03-06T08:20:33.312Z,7.65
2023-03-06T08:23:01.817Z,7.50
2023-03-06T08:25:30.473Z,6.70
2023-03-06T08:27:59.037Z,7.40
2023-03-06T08:30:27.556Z,7.18
2023-03-06T08:32:55.994Z,8.32
2023-03-06T08:35:24.886Z,7.47
2023-03-06T08:37:54.836Z,8.32
2023-03-06T08:40:23.412Z,6.85
2023-03-06T08:42:52.162Z,7.70
2023-03-06T08:45:20.814Z,7.63
2023-03-06T08:47:49.329Z,7.68
2023-03-06T08:50:18.942Z,7.82
2023-03-06T08:52:47.289Z,7.65
2023-03-06T08:55:17.170Z,6.78
2023-03-06T08:57:46.451Z,8.52
2023-03-06T09:00:16.279Z,6.50
2023-03-06T09:02:44.832Z,7.60
2023-03-06T09:05:13.351Z,7.28
2023-03-06T09:07:41.870Z,7.03
2023-03-06T09:10:17.894Z,7.82
2023-03-06T09:12:51.343Z,8.10
2023-03-06T09:15:21.845Z,6.07
2023-03-06T09:17:50.828Z,7.53
2023-03-06T09:20:19.783Z,7.15
2023-03-06T09:22:48.536Z,7.25
2023-03-06T09:25:20.477Z,7.15
2023-03-06T09:28:01.937Z,7.82
2023-03-06T09:30:37.382Z,8.05
2023-03-06T09:33:06.297Z,8.23
2023-03-06T09:35:34.895Z,7.13
2023-03-06T09:38:03.117Z,7.95
2023-03-06T09:40:52.523Z,8.38
2023-03-06T09:43:26.615Z,7.80
2023-03-06T09:45:55.437Z,7.65
2023-03-06T09:48:37.587Z,7.55
2023-03-06T09:51:13.542Z,7.22
2023-03-06T09:53:59.995Z,6.90
2023-03-06T09:56:33.794Z,7.07
2023-03-06T09:59:18.281Z,8.90
2023-03-06T10:01:56.034Z,7.47
2023-03-06T10:04:37.217Z,8.60
2023-03-06T10:07:15.638Z,7.90
2023-03-06T10:09:51.730Z,7.18
2023-03-06T10:12:26.066Z,7.53
2023-03-06T10:15:13.059Z,7.80
2023-03-06T10:17:43.622Z,8.50
2023-03-06T10:20:20.705Z,7.63
2023-03-06T10:23:11.249Z,7.53
2023-03-06T10:25:49.917Z,8.23
2023-03-06T10:28:25.523Z,8.50
2023-03-06T10:31:01.252Z,8.70
2023-03-06T10:33:43.621Z,7.55
2023-03-06T10:36:16.165Z,7.35
2023-03-06T10:38:46.050Z,8.80
2023-03-06T10:41:27.448Z,7.28
2023-03-06T10:44:23.633Z,7.90
2023-03-06T10:46:54.775Z,7.40
2023-03-06T10:49:31.954Z,8.00
2023-03-06T10:52:04.242Z,8.48
2023-03-06T10:54:34.931Z,7.53
2023-03-06T10:57:26.218Z,7.40
2023-03-06T10:59:58.627Z,7.03
2023-03-06T11:02:31.339Z,6.88
2023-03-06T11:05:02.190Z,5.82
2023-03-06T11:07:32.747Z,7.70
2023-03-06T11:10:16.778Z,8.10
2023-03-06T11:12:56.720Z,6.78
2023-03-06T11:15:27.583Z,8.13
2023-03-06T11:18:00.307Z,7.07
2023-03-06T11:20:50.158Z,7.05
2023-03-06T11:23:22.812Z,7.75
2023-03-06T11:25:57.202Z,6.95
2023-03-06T11:28:29.797Z,7.70
2023-03-06T11:31:04.854Z,6.55
2023-03-06T11:33:41.578Z,7.35
2023-03-06T11:36:16.725Z,6.22
2023-03-06T11:38:50.905Z,6.78
2023-03-06T11:41:32.420Z,6.20
2023-03-06T11:44:12.134Z,7.35
2023-03-06T11:46:48.641Z,6.38
2023-03-06T11:49:25.328Z,8.15
2023-03-06T11:51:58.668Z,6.80
2023-03-06T11:54:27.619Z,6.15
2023-03-06T11:57:00.642Z,7.00
2023-03-06T12:00:02.275Z,6.50
2023-03-06T12:03:00.233Z,6.25
2023-03-06T12:05:38.133Z,5.68
2023-03-06T12:08:45.009Z,5.75
2023-03-06T12:11:21.344Z,5.57
2023-03-06T12:14:06.298Z,6.65
2023-03-06T12:17:02.597Z,5.85
2023-03-06T12:19:49.836Z,5.57
2023-03-06T12:22:53.295Z,7.20
2023-03-06T12:25:36.370Z,7.95
2023-03-06T12:28:38.410Z,5.70
2023-03-06T12:31:28.865Z,5.25
2023-03-06T12:34:23.562Z,5.30
2023-03-06T12:37:09.613Z,5.63
2023-03-06T12:39:56.864Z,6.50
2023-03-06T12:42:42.314Z,7.03
2023-03-06T12:45:27.654Z,7.72
2023-03-06T12:47:58.109Z,7.80
2023-03-06T12:50:28.749Z,7.03
2023-03-06T12:53:03.035Z,7.22
2023-03-06T12:55:41.412Z,6.72
2023-03-06T12:58:35.686Z,5.80
2023-03-06T13:01:10.481Z,6.68
2023-03-06T13:06:54.140Z,5.75
2023-03-06T13:09:34.581Z,6.80
2023-03-06T13:12:26.743Z,6.13
2023-03-06T13:15:00.691Z,7.55
2023-03-06T13:17:36.824Z,5.32
2023-03-06T13:20:40.076Z,5.97
2023-03-06T13:23:51.599Z,5.53
2023-03-06T13:26:55.668Z,5.63
2023-03-06T13:30:21.557Z,6.32
2023-03-06T13:32:52.771Z,5.80
2023-03-06T13:35:53.548Z,5.65
2023-03-06T13:38:38.635Z,5.38
2023-03-06T13:44:47.305Z,4.75
2023-03-06T13:48:33.837Z,5.25
2023-03-06T13:50:47.557Z,4.60
2023-03-06T13:54:17.297Z,5.80
2023-03-06T13:57:17.613Z,5.07
2023-03-06T14:00:44.476Z,4.25
2023-03-06T14:04:00.855Z,4.40
2023-03-06T14:06:53.915Z,4.85
2023-03-06T14:09:30.329Z,5.30
2023-03-06T14:12:03.435Z,3.80
2023-03-06T14:14:41.193Z,3.97
2023-03-06T14:17:26.487Z,4.45
2023-03-06T14:19:55.347Z,4.38
2023-03-06T14:22:25.718Z,3.90
2023-03-06T14:25:00.596Z,4.57
2023-03-06T14:27:49.404Z,4.82
2023-03-06T14:30:20.936Z,5.10
2023-03-06T14:32:54.634Z,4.03
2023-03-06T14:35:28.177Z,3.88
2023-03-06T14:38:00.182Z,4.35
2023-03-06T14:40:34.372Z,3.58
2023-03-06T14:43:18.748Z,4.10
2023-03-06T14:45:52.504Z,3.30
2023-03-06T14:48:22.259Z,4.03
2023-03-06T14:50:53.782Z,2.85
2023-03-06T14:53:27.780Z,3.00
2023-03-06T14:56:00.084Z,3.53
2023-03-06T14:58:34.465Z,2.50
2023-03-06T15:01:06.782Z,2.88
2023-03-06T15:03:45.488Z,2.08
2023-03-06T15:06:21.061Z,3.00
2023-03-06T15:08:56.893Z,2.72
2023-03-06T15:11:25.542Z,2.10
2023-03-06T15:14:03.836Z,2.45
2023-03-06T15:16:32.705Z,2.67
2023-03-06T15:19:03.677Z,3.05
2023-03-06T15:21:36.626Z,3.47
2023-03-06T15:24:33.004Z,2.95
2023-03-06T15:27:06.000Z,4.15
2023-03-06T15:29:38.760Z,3.30
2023-03-06T15:32:42.395Z,4.28
2023-03-06T15:35:32.700Z,4.50
2023-03-06T15:38:01.849Z,4.53
2023-03-06T15:40:32.906Z,5.50
2023-03-06T15:43:01.974Z,4.97
2023-03-06T15:45:31.887Z,6.70
2023-03-06T15:48:00.359Z,6.40
2023-03-06T15:50:30.475Z,5.50
2023-03-06T15:52:58.945Z,4.80
2023-03-06T15:55:27.801Z,4.57
2023-03-06T15:57:59.615Z,5.90
2023-03-06T16:00:30.765Z,5.45
2023-03-06T16:02:59.808Z,6.47
2023-03-06T16:05:30.605Z,6.35
2023-03-06T16:07:59.109Z,7.07
2023-03-06T16:10:31.760Z,6.68
2023-03-06T16:13:06.187Z,7.90
2023-03-06T16:15:40.792Z,6.90
2023-03-06T16:20:42.867Z,7.88
2023-03-06T16:23:11.843Z,7.82
2023-03-06T16:25:43.078Z,9.82
2023-03-06T16:28:14.641Z,9.05
2023-03-06T16:30:44.980Z,8.90
2023-03-06T16:33:14.350Z,8.88
2023-03-06T16:35:46.463Z,9.75
2023-03-06T16:38:16.208Z,8.13
2023-03-06T16:40:44.927Z,8.45
2023-03-06T16:43:16.004Z,10.68
2023-03-06T16:45:44.792Z,8.57
2023-03-06T16:48:17.683Z,8.90
2023-03-06T16:50:47.534Z,8.88
2023-03-06T16:53:16.372Z,9.35
2023-03-06T16:55:44.590Z,8.43
2023-03-06T16:58:13.213Z,9.20
2023-03-06T17:00:42.167Z,8.15
2023-03-06T17:03:10.713Z,7.57
2023-03-06T17:05:39.465Z,8.68
2023-03-06T17:08:09.007Z,8.65
2023-03-06T17:10:39.876Z,7.65
2023-03-06T17:13:08.498Z,7.40
2023-03-06T17:15:37.306Z,8.75
2023-03-06T17:18:06.171Z,7.95
2023-03-06T17:20:34.751Z,7.78
2023-03-06T17:23:03.249Z,7.22
2023-03-06T17:25:34.872Z,8.77
2023-03-06T17:28:03.425Z,6.70
2023-03-06T17:30:31.931Z,8.48
2023-03-06T17:33:00.720Z,5.93
2023-03-06T17:35:29.047Z,7.57
2023-03-06T17:37:58.506Z,7.45
2023-03-06T17:40:26.731Z,8.23
2023-03-06T17:42:56.298Z,7.93
2023-03-06T17:45:24.790Z,6.82
2023-03-06T17:47:55.711Z,6.70
2023-03-06T17:50:24.238Z,6.93
2023-03-06T17:52:52.721Z,7.53
2023-03-06T17:55:21.344Z,8.27
2023-03-06T17:57:52.224Z,7.30
2023-03-06T18:00:23.630Z,8.65
2023-03-06T18:02:52.215Z,8.38
2023-03-06T18:05:21.737Z,8.43
2023-03-06T18:07:50.305Z,8.25
2023-03-06T18:10:19.002Z,8.93
2023-03-06T18:12:47.263Z,8.98
2023-03-06T18:15:15.493Z,8.00
2023-03-06T18:17:45.062Z,8.98
2023-03-06T18:20:13.889Z,10.65
2023-03-06T18:22:42.456Z,10.30
2023-03-06T18:25:11.322Z,9.68
2023-03-06T18:27:39.811Z,9.70
2023-03-06T18:30:09.689Z,9.85
2023-03-06T18:32:38.268Z,9.27
2023-03-06T18:35:09.659Z,10.52
2023-03-06T18:37:38.435Z,10.23
2023-03-06T18:40:08.488Z,9.60
2023-03-06T18:42:37.132Z,10.73
2023-03-06T18:45:06.220Z,12.32
2023-03-06T18:47:34.755Z,11.52
2023-03-06T18:50:03.534Z,10.55
2023-03-06T18:52:34.196Z,8.40
2023-03-06T18:55:02.796Z,10.65
2023-03-06T18:57:31.001Z,9.57
2023-03-06T18:59:59.577Z,7.38
2023-03-06T19:02:28.177Z,9.90
2023-03-06T19:04:57.986Z,9.88
2023-03-06T19:07:26.468Z,8.35
2023-03-06T19:09:56.052Z,8.88
2023-03-06T19:12:24.597Z,9.20
2023-03-06T19:14:53.088Z,8.73
2023-03-06T19:17:23.432Z,6.53
2023-03-06T19:19:52.851Z,9.90
2023-03-06T19:22:22.049Z,6.88
2023-03-06T19:24:50.743Z,8.30
2023-03-06T19:27:20.431Z,10.32
2023-03-06T19:29:48.944Z,8.95
2023-03-06T19:32:17.546Z,9.63
2023-03-06T19:34:49.076Z,9.95
2023-03-06T19:37:17.283Z,10.20
2023-03-06T19:39:45.910Z,8.27
2023-03-06T19:42:14.485Z,10.13
2023-03-06T19:44:44.254Z,10.48
2023-03-06T19:47:12.764Z,10.63
2023-03-06T19:49:41.453Z,9.52
2023-03-06T19:52:10.024Z,8.75
2023-03-06T19:54:38.704Z,7.20
2023-03-06T19:57:07.308Z,9.05
2023-03-06T19:59:35.789Z,8.23
2023-03-06T20:02:05.462Z,10.45
2023-03-06T20:04:34.456Z,9.50
2023-03-06T20:07:04.735Z,8.05
2023-03-06T20:09:33.242Z,8.82
2023-03-06T20:12:01.794Z,9.07
2023-03-06T20:14:30.799Z,9.68
2023-03-06T20:16:59.067Z,9.98
2023-03-06T20:19:28.857Z,10.43
2023-03-06T20:21:57.379Z,10.20
2023-03-06T20:24:25.990Z,9.50
2023-03-06T20:26:57.471Z,10.48
2023-03-06T20:29:28.374Z,10.48
2023-03-06T20:31:58.264Z,10.65
2023-03-06T20:34:28.374Z,9.27
2023-03-06T20:36:57.861Z,9.73
2023-03-06T20:39:26.455Z,8.90
2023-03-06T20:41:58.171Z,10.05
2023-03-06T20:44:29.769Z,9.82
2023-03-06T20:46:58.294Z,10.52
2023-03-06T20:49:28.404Z,7.10
2023-03-06T20:51:57.038Z,9.82
2023-03-06T20:54:25.529Z,11.20
2023-03-06T20:56:54.035Z,9.05
2023-03-06T20:59:23.685Z,10.85
2023-03-06T21:01:52.256Z,9.13
2023-03-06T21:04:20.765Z,9.35
2023-03-06T21:06:53.162Z,11.05
2023-03-06T21:09:21.766Z,9.82
2023-03-06T21:11:50.719Z,10.73
2023-03-06T21:14:19.285Z,10.95
2023-03-06T21:16:47.819Z,8.75
2023-03-06T21:19:16.757Z,9.95
2023-03-06T21:21:45.278Z,12.75
2023-03-06T21:24:14.854Z,10.55
2023-03-06T21:26:43.386Z,11.95
2023-03-06T21:29:11.968Z,9.85
2023-03-06T21:31:40.940Z,12.63
2023-03-06T21:34:11.366Z,11.85
2023-03-06T21:36:39.580Z,9.75
2023-03-06T21:39:08.382Z,9.15
2023-03-06T21:41:38.179Z,12.60
2023-03-06T21:44:08.018Z,12.18
2023-03-06T21:46:36.718Z,12.63
2023-03-06T21:49:06.330Z,8.23
2023-03-06T21:51:34.951Z,11.00
2023-03-06T21:54:04.125Z,11.60
2023-03-06T21:56:33.466Z,12.57
2023-03-06T21:59:03.158Z,12.00
2023-03-06T22:01:31.682Z,11.60
2023-03-06T22:04:00.809Z,11.40
2023-03-06T22:06:31.238Z,11.38
2023-03-06T22:09:00.966Z,11.85
2023-03-06T22:11:31.217Z,11.52
2023-03-06T22:13:59.617Z,11.18
2023-03-06T22:16:29.871Z,11.95
2023-03-06T22:18:58.751Z,11.05
2023-03-06T22:21:27.256Z,9.60
2023-03-06T22:23:58.388Z,13.32
2023-03-06T22:26:28.480Z,13.35
2023-03-06T22:28:57.254Z,11.77
2023-03-06T22:31:28.399Z,13.68
2023-03-06T22:34:00.760Z,12.48
2023-03-06T22:36:31.344Z,10.45
2023-03-06T22:39:02.445Z,13.48
2023-03-06T22:41:31.614Z,14.52
2023-03-06T22:44:01.419Z,11.90
2023-03-06T22:46:30.395Z,14.98
2023-03-06T22:49:01.030Z,13.98
2023-03-06T22:51:30.408Z,9.95
2023-03-06T22:53:59.089Z,10.13
2023-03-06T22:56:27.365Z,11.82
2023-03-06T22:58:57.496Z,12.57
2023-03-06T23:01:28.043Z,12.75
2023-03-06T23:04:00.080Z,11.25
2023-03-06T23:06:31.332Z,10.77
2023-03-06T23:09:03.717Z,13.32
2023-03-06T23:11:32.420Z,10.27
2023-03-06T23:14:20.712Z,7.30
2023-03-06T23:17:08.514Z,13.30
2023-03-06T23:19:56.557Z,14.25
2023-03-06T23:22:44.237Z,11.40
2023-03-06T23:25:31.218Z,12.80
2023-03-06T23:27:59.781Z,12.35
2023-03-06T23:30:28.386Z,11.27
2023-03-06T23:32:56.998Z,10.18
2023-03-06T23:35:26.686Z,13.98
2023-03-06T23:37:55.206Z,12.48
2023-03-06T23:40:24.022Z,12.98
2023-03-06T23:42:52.682Z,11.07
2023-03-06T23:45:21.816Z,12.32
2023-03-06T23:47:50.346Z,11.85
2023-03-06T23:50:19.141Z,10.90
2023-03-06T23:52:48.810Z,10.43
2023-03-06T23:55:17.559Z,10.73
2023-03-06T23:57:46.306Z,9.32
